Time;durP1;ratioP1;P1;durP2;ratioP2;P2;SDS_P1;SDS_P2;PMS_P1;PMS_P2;Temp;Humidity;BMP_temperature;BMP_pressure;BME280_temperature;BME280_humidity;BME280_pressure;Samples;Min_cycle;Max_cycle;Signal;HPM_P1;HPM_P2
2023/08/25 00:00:40;;;;;;;8.38;3.60;;;22.50;99.90;;;;;;5109451;28;20046;-72
2023/08/25 00:03:26;;;;;;;7.05;3.70;;;22.50;99.90;;;;;;5094069;28;20096;-71
2023/08/25 00:06:12;;;;;;;8.73;3.60;;;22.40;99.90;;;;;;5107571;28;20044;-72
2023/08/25 00:08:58;;;;;;;8.38;3.67;;;22.40;99.90;;;;;;5074733;28;20040;-71
2023/08/25 00:11:44;;;;;;;9.20;3.80;;;22.40;99.90;;;;;;5083463;28;20035;-72
2023/08/25 00:14:30;;;;;;;9.45;3.45;;;22.40;99.90;;;;;;5078423;28;20172;-71
2023/08/25 00:17:16;;;;;;;11.40;4.47;;;22.30;99.90;;;;;;5091744;28;20923;-72
2023/08/25 00:20:03;;;;;;;8.75;4.32;;;22.30;99.90;;;;;;5083528;28;20050;-71
2023/08/25 00:22:49;;;;;;;11.18;3.78;;;22.30;99.90;;;;;;5078406;28;20086;-71
2023/08/25 00:25:35;;;;;;;9.32;3.50;;;22.30;99.90;;;;;;5081667;28;20448;-71
2023/08/25 00:28:21;;;;;;;8.00;3.63;;;22.30;99.90;;;;;;5074458;28;20036;-71
2023/08/25 00:31:07;;;;;;;8.43;3.50;;;22.20;99.90;;;;;;5080082;28;20073;-72
2023/08/25 00:33:53;;;;;;;5.78;3.28;;;22.10;99.90;;;;;;5080625;28;20333;-71
2023/08/25 00:36:39;;;;;;;13.05;4.28;;;22.10;99.90;;;;;;5081051;28;20028;-71
2023/08/25 00:39:25;;;;;;;9.80;3.95;;;22.00;99.90;;;;;;5077018;28;20039;-71
2023/08/25 00:42:11;;;;;;;8.30;3.75;;;21.90;99.90;;;;;;5070351;28;20044;-71
2023/08/25 00:44:57;;;;;;;12.85;4.40;;;21.90;99.90;;;;;;5063523;28;20047;-72
2023/08/25 00:47:43;;;;;;;8.88;3.60;;;21.90;99.90;;;;;;5093350;28;20027;-71
2023/08/25 00:50:29;;;;;;;8.23;4.13;;;21.90;99.90;;;;;;5097069;28;20383;-71
2023/08/25 00:53:15;;;;;;;12.38;3.85;;;21.90;99.90;;;;;;5097289;28;20049;-71
2023/08/25 00:56:02;;;;;;;6.53;3.33;;;21.80;99.90;;;;;;5056621;28;20777;-71
2023/08/25 00:58:48;;;;;;;8.68;3.80;;;21.80;99.90;;;;;;5069660;28;20061;-71
2023/08/25 01:01:35;;;;;;;10.48;4.03;;;21.80;99.90;;;;;;5084805;28;20371;-72
2023/08/25 01:04:21;;;;;;;6.50;3.72;;;21.80;99.90;;;;;;5067585;28;20055;-71
2023/08/25 01:07:07;;;;;;;9.07;3.45;;;21.80;99.90;;;;;;5086907;28;20103;-71
2023/08/25 01:09:53;;;;;;;9.55;3.83;;;21.80;99.90;;;;;;5109908;28;20050;-71
2023/08/25 01:12:51;;;;;;;7.40;3.58;;;21.80;99.90;;;;;;5097828;28;20472;-71
2023/08/25 01:15:45;;;;;;;10.93;3.60;;;21.80;99.90;;;;;;5099635;28;20051;-71
2023/08/25 01:18:32;;;;;;;7.72;3.50;;;21.70;99.90;;;;;;5086665;28;20444;-71
2023/08/25 01:21:18;;;;;;;7.93;3.58;;;21.70;99.90;;;;;;5084096;28;20422;-71
2023/08/25 01:24:11;;;;;;;9.60;4.03;;;21.70;99.90;;;;;;5096619;28;20047;-71
2023/08/25 01:26:56;;;;;;;7.35;4.03;;;21.70;99.90;;;;;;5082444;28;20491;-72
2023/08/25 01:29:43;;;;;;;11.57;4.30;;;21.60;99.90;;;;;;5084192;28;20047;-73
2023/08/25 01:32:29;;;;;;;8.45;3.90;;;21.60;99.90;;;;;;5080375;28;20047;-71
2023/08/25 01:35:15;;;;;;;8.50;3.92;;;21.60;99.90;;;;;;5094546;28;20081;-72
2023/08/25 01:38:29;;;;;;;7.15;4.05;;;21.50;99.90;;;;;;5054457;28;20035;-72
2023/08/25 01:41:30;;;;;;;10.93;3.90;;;21.50;99.90;;;;;;5067730;28;20059;-71
2023/08/25 01:44:18;;;;;;;12.43;3.63;;;21.50;99.90;;;;;;5078785;28;20036;-72
2023/08/25 01:47:05;;;;;;;8.07;3.75;;;21.50;99.90;;;;;;5077957;28;20652;-72
2023/08/25 01:49:51;;;;;;;6.82;4.00;;;21.50;99.90;;;;;;5074483;28;20047;-72
2023/08/25 01:52:37;;;;;;;7.22;3.40;;;21.50;99.90;;;;;;5062976;28;20046;-71
2023/08/25 01:55:23;;;;;;;6.88;3.42;;;21.50;99.90;;;;;;5095863;28;20156;-72
2023/08/25 01:58:09;;;;;;;6.50;3.50;;;21.40;99.90;;;;;;5097959;28;20128;-71
2023/08/25 02:00:55;;;;;;;7.22;3.92;;;21.40;99.90;;;;;;5069554;28;20039;-71
2023/08/25 02:03:41;;;;;;;9.05;3.97;;;21.40;99.90;;;;;;5081687;28;20096;-71
2023/08/25 02:06:27;;;;;;;6.53;4.15;;;21.40;99.90;;;;;;5060903;28;20048;-72
2023/08/25 02:09:14;;;;;;;6.70;3.58;;;21.30;99.90;;;;;;5079685;28;20743;-71
2023/08/25 02:12:00;;;;;;;5.80;3.70;;;21.30;99.90;;;;;;5088119;28;20519;-72
2023/08/25 02:14:46;;;;;;;8.13;3.97;;;21.30;99.90;;;;;;5066545;28;20073;-72
2023/08/25 02:17:32;;;;;;;5.85;3.85;;;21.30;99.90;;;;;;5096363;28;20043;-74
2023/08/25 02:20:19;;;;;;;7.03;4.15;;;21.30;99.90;;;;;;5097591;28;20089;-73
2023/08/25 02:23:07;;;;;;;9.48;3.88;;;21.30;99.90;;;;;;5082758;28;20059;-73
2023/08/25 02:25:53;;;;;;;7.13;3.53;;;21.30;99.90;;;;;;5109273;28;20596;-73
2023/08/25 02:28:39;;;;;;;7.07;3.40;;;21.30;99.90;;;;;;5096487;28;20044;-73
2023/08/25 02:31:25;;;;;;;9.18;3.78;;;21.30;99.90;;;;;;5083670;28;20132;-73
2023/08/25 02:34:11;;;;;;;7.45;3.55;;;21.30;99.90;;;;;;5061897;28;20056;-72
2023/08/25 02:36:57;;;;;;;6.63;4.10;;;21.30;99.90;;;;;;5096113;28;20036;-74
2023/08/25 02:39:43;;;;;;;7.57;3.90;;;21.30;99.90;;;;;;5096442;28;20051;-74
2023/08/25 02:42:29;;;;;;;8.73;3.50;;;21.30;99.90;;;;;;5082663;28;20044;-73
2023/08/25 02:45:15;;;;;;;13.40;4.05;;;21.30;99.90;;;;;;5067467;28;20050;-73
2023/08/25 02:48:03;;;;;;;6.75;3.45;;;21.30;99.90;;;;;;5097396;28;20040;-73
2023/08/25 02:50:49;;;;;;;7.88;3.63;;;21.30;99.90;;;;;;5062811;28;20574;-73
2023/08/25 02:53:35;;;;;;;7.53;3.35;;;21.30;99.90;;;;;;5067150;28;20051;-72
2023/08/25 02:56:21;;;;;;;8.55;3.88;;;21.30;99.90;;;;;;5108655;28;20628;-73
2023/08/25 02:59:08;;;;;;;8.40;3.40;;;21.30;99.90;;;;;;5077250;28;20043;-74
2023/08/25 03:01:54;;;;;;;5.88;3.83;;;21.20;99.90;;;;;;5098138;28;20031;-73
2023/08/25 03:04:40;;;;;;;8.40;3.70;;;21.20;99.90;;;;;;5077434;28;20040;-73
2023/08/25 03:07:26;;;;;;;7.57;3.80;;;21.20;99.90;;;;;;5053184;28;20078;-73
2023/08/25 03:10:12;;;;;;;9.80;3.75;;;21.20;99.90;;;;;;5089066;28;20126;-74
2023/08/25 03:12:58;;;;;;;6.35;3.72;;;21.20;99.90;;;;;;5083186;28;20043;-73
2023/08/25 03:15:48;;;;;;;7.60;4.10;;;21.20;99.90;;;;;;5080603;28;20040;-73
2023/08/25 03:18:34;;;;;;;5.82;3.70;;;21.20;99.90;;;;;;5076239;28;20035;-73
2023/08/25 03:21:20;;;;;;;7.63;4.10;;;21.20;99.90;;;;;;5063580;28;20043;-73
2023/08/25 03:24:06;;;;;;;7.78;3.85;;;21.20;99.90;;;;;;5064309;28;20036;-73
2023/08/25 03:26:52;;;;;;;7.05;3.70;;;21.20;99.90;;;;;;5061199;28;20048;-74
2023/08/25 03:29:39;;;;;;;6.25;4.03;;;21.20;99.90;;;;;;5061499;28;20101;-73
2023/08/25 03:32:25;;;;;;;5.65;3.50;;;21.10;99.90;;;;;;5079516;28;20066;-73
2023/08/25 03:35:11;;;;;;;6.15;3.17;;;21.20;99.90;;;;;;5090154;28;20040;-73
2023/08/25 03:37:57;;;;;;;7.72;3.92;;;21.20;99.90;;;;;;5078007;28;20460;-73
2023/08/25 03:40:43;;;;;;;9.05;3.53;;;21.10;99.90;;;;;;5080068;28;20047;-74
2023/08/25 03:43:29;;;;;;;5.82;3.55;;;21.10;99.90;;;;;;5095369;28;20104;-74
2023/08/25 03:46:15;;;;;;;9.05;4.05;;;21.10;99.90;;;;;;5081956;28;20039;-74
2023/08/25 03:49:01;;;;;;;8.00;3.85;;;21.10;99.90;;;;;;5090992;28;20410;-74
2023/08/25 03:51:47;;;;;;;9.93;3.72;;;21.10;99.90;;;;;;5080059;28;20112;-73
2023/08/25 03:54:35;;;;;;;9.68;3.75;;;21.10;99.90;;;;;;5095040;28;20779;-74
2023/08/25 03:57:21;;;;;;;5.78;3.83;;;21.00;99.90;;;;;;5094957;28;20063;-74
2023/08/25 04:00:07;;;;;;;6.88;3.95;;;21.00;99.90;;;;;;5095436;28;20682;-73
2023/08/25 04:02:54;;;;;;;8.13;3.80;;;21.00;99.90;;;;;;5076294;28;20044;-72
2023/08/25 04:05:40;;;;;;;7.50;3.88;;;20.90;99.90;;;;;;5052729;28;20039;-73
2023/08/25 04:08:26;;;;;;;10.93;3.80;;;20.90;99.90;;;;;;5081764;28;20375;-73
2023/08/25 04:11:12;;;;;;;7.88;4.05;;;20.90;99.90;;;;;;5076163;28;20427;-73
2023/08/25 04:13:58;;;;;;;7.78;3.83;;;20.80;99.90;;;;;;5093041;28;20043;-73
2023/08/25 04:16:44;;;;;;;8.48;3.47;;;20.80;99.90;;;;;;5095587;28;20693;-73
2023/08/25 04:19:30;;;;;;;7.25;3.53;;;20.80;99.90;;;;;;5095129;28;20036;-73
2023/08/25 04:22:16;;;;;;;7.93;3.70;;;20.80;99.90;;;;;;5082530;28;20333;-74
2023/08/25 04:25:04;;;;;;;7.47;4.05;;;20.80;99.90;;;;;;5080749;28;20047;-74
2023/08/25 04:27:50;;;;;;;8.45;3.63;;;20.70;99.90;;;;;;5113613;28;20100;-74
2023/08/25 04:30:36;;;;;;;6.07;3.83;;;20.70;99.90;;;;;;5093632;28;20467;-73
2023/08/25 04:33:22;;;;;;;8.10;4.13;;;20.70;99.90;;;;;;5050596;28;20079;-72
2023/08/25 04:36:08;;;;;;;11.38;3.88;;;20.70;99.90;;;;;;5092290;28;20172;-73
2023/08/25 04:38:54;;;;;;;7.32;3.88;;;20.70;99.90;;;;;;5079271;28;20036;-72
2023/08/25 04:41:41;;;;;;;9.95;3.95;;;20.60;99.90;;;;;;5089565;28;20043;-74
2023/08/25 04:44:27;;;;;;;7.43;4.30;;;20.70;99.90;;;;;;5078457;28;20082;-74
2023/08/25 04:47:15;;;;;;;8.00;4.18;;;20.70;99.90;;;;;;5077603;28;20684;-75
2023/08/25 04:50:02;;;;;;;9.43;4.55;;;20.70;99.90;;;;;;5084207;28;20100;-73
2023/08/25 04:52:48;;;;;;;10.15;4.20;;;20.70;99.90;;;;;;5098350;28;20193;-73
2023/08/25 04:55:34;;;;;;;8.77;4.10;;;20.70;99.90;;;;;;5097881;28;20036;-74
2023/08/25 04:58:20;;;;;;;10.10;4.47;;;20.70;99.90;;;;;;5097366;28;20110;-73
2023/08/25 05:01:06;;;;;;;7.68;3.83;;;20.70;99.90;;;;;;5096715;28;20388;-73
2023/08/25 05:03:52;;;;;;;10.63;4.60;;;20.80;99.90;;;;;;5108366;28;20048;-74
2023/08/25 05:06:38;;;;;;;7.75;3.97;;;20.80;99.90;;;;;;5070519;28;20047;-73
2023/08/25 05:09:24;;;;;;;8.43;3.60;;;20.80;99.90;;;;;;5060705;28;20058;-73
2023/08/25 05:12:12;;;;;;;7.13;4.03;;;20.80;99.90;;;;;;5082404;28;20085;-74
2023/08/25 05:14:58;;;;;;;8.50;3.90;;;20.90;99.90;;;;;;5097379;28;20039;-73
2023/08/25 05:17:44;;;;;;;8.60;3.95;;;20.90;99.90;;;;;;5071285;28;20108;-73
2023/08/25 05:20:30;;;;;;;9.65;4.75;;;20.90;99.90;;;;;;5067238;28;20046;-73
2023/08/25 05:23:15;;;;;;;8.25;4.50;;;20.90;99.90;;;;;;5089603;28;20043;-74
2023/08/25 05:26:02;;;;;;;8.27;4.45;;;20.90;99.90;;;;;;5096868;28;20046;-73
2023/08/25 05:28:47;;;;;;;7.55;3.92;;;20.90;99.90;;;;;;5111549;28;20039;-72
2023/08/25 05:31:33;;;;;;;8.30;4.18;;;20.90;99.90;;;;;;5069164;28;20039;-73
2023/08/25 05:34:20;;;;;;;9.02;4.10;;;20.90;99.90;;;;;;5078579;28;20395;-74
2023/08/25 05:37:06;;;;;;;9.32;3.95;;;20.90;99.90;;;;;;5076923;28;20066;-73
2023/08/25 05:39:52;;;;;;;9.02;4.00;;;20.90;99.90;;;;;;5069443;28;20043;-73
2023/08/25 05:42:38;;;;;;;14.30;5.18;;;20.90;99.90;;;;;;5076884;28;20036;-73
2023/08/25 05:45:24;;;;;;;12.65;4.50;;;20.90;99.90;;;;;;5079141;28;20052;-74
2023/08/25 05:48:10;;;;;;;10.43;4.20;;;20.90;99.90;;;;;;5085184;28;20047;-72
2023/08/25 05:50:56;;;;;;;11.95;4.05;;;20.90;99.90;;;;;;5067929;28;20039;-73
2023/08/25 05:53:42;;;;;;;9.82;4.00;;;20.90;99.90;;;;;;5074855;28;20047;-73
2023/08/25 05:56:28;;;;;;;8.38;4.50;;;21.00;99.90;;;;;;5086476;28;20514;-74
2023/08/25 05:59:14;;;;;;;8.35;3.92;;;21.00;99.90;;;;;;5088780;28;20078;-73
2023/08/25 06:02:01;;;;;;;12.63;4.10;;;21.00;99.90;;;;;;5103102;28;20377;-73
2023/08/25 06:04:47;;;;;;;8.13;3.70;;;21.10;99.90;;;;;;5100149;28;20036;-73
2023/08/25 06:07:33;;;;;;;10.20;4.07;;;21.10;99.90;;;;;;5060239;28;20050;-73
2023/08/25 06:10:22;;;;;;;9.43;4.00;;;21.10;99.90;;;;;;5092126;28;20039;-73
2023/08/25 06:13:08;;;;;;;11.05;4.53;;;21.20;99.90;;;;;;5058070;28;20566;-73
2023/08/25 06:15:54;;;;;;;11.02;3.78;;;21.20;99.90;;;;;;5082011;28;20036;-73
2023/08/25 06:18:41;;;;;;;9.98;4.47;;;21.20;99.90;;;;;;5106576;28;20035;-74
2023/08/25 06:21:27;;;;;;;7.47;4.43;;;21.20;99.90;;;;;;5075183;28;20071;-74
2023/08/25 06:24:13;;;;;;;9.18;3.63;;;21.30;99.90;;;;;;5063988;28;20125;-74
2023/08/25 06:26:59;;;;;;;7.72;3.72;;;21.30;99.90;;;;;;5081469;28;20495;-73
2023/08/25 06:29:45;;;;;;;8.05;3.33;;;21.30;99.90;;;;;;5099563;28;20046;-73
2023/08/25 06:32:32;;;;;;;12.73;3.80;;;21.40;99.90;;;;;;5086917;28;20058;-74
2023/08/25 06:35:18;;;;;;;8.55;3.90;;;21.40;99.90;;;;;;5085995;28;20067;-72
2023/08/25 06:38:04;;;;;;;6.93;3.53;;;21.50;99.90;;;;;;5086471;28;20067;-73
2023/08/25 06:40:52;;;;;;;10.00;3.80;;;21.50;99.90;;;;;;5105775;28;20108;-72
2023/08/25 06:43:38;;;;;;;8.70;4.07;;;21.60;99.90;;;;;;5073671;28;20139;-73
2023/08/25 06:46:24;;;;;;;7.38;3.45;;;21.60;99.90;;;;;;5060795;28;20071;-73
2023/08/25 06:49:11;;;;;;;9.13;3.35;;;21.70;99.90;;;;;;5071998;28;20507;-72
2023/08/25 06:51:57;;;;;;;5.72;3.65;;;21.70;99.90;;;;;;5072192;28;20458;-74
2023/08/25 06:54:43;;;;;;;10.63;3.72;;;21.70;99.90;;;;;;5105122;28;20047;-73
2023/08/25 06:57:30;;;;;;;7.78;3.35;;;21.80;99.90;;;;;;5087055;28;20042;-74
2023/08/25 07:00:17;;;;;;;7.45;3.70;;;21.80;99.90;;;;;;5078659;28;20680;-74
2023/08/25 07:03:03;;;;;;;7.37;3.33;;;21.90;99.90;;;;;;5081663;28;20044;-74
2023/08/25 07:05:49;;;;;;;6.97;3.63;;;21.90;99.90;;;;;;5101143;28;20043;-72
2023/08/25 07:08:36;;;;;;;8.00;3.70;;;21.90;99.90;;;;;;5056494;28;20039;-72
2023/08/25 07:11:22;;;;;;;6.68;3.65;;;22.00;99.90;;;;;;5088219;28;20039;-72
2023/08/25 07:14:08;;;;;;;8.45;3.55;;;22.00;99.90;;;;;;5078030;28;20051;-73
2023/08/25 07:16:54;;;;;;;8.75;3.50;;;22.00;99.90;;;;;;5094306;28;20040;-73
2023/08/25 07:19:40;;;;;;;8.90;3.10;;;22.00;99.90;;;;;;5080765;28;20053;-73
2023/08/25 07:22:25;;;;;;;10.70;3.95;;;22.10;99.90;;;;;;5066764;28;20681;-73
2023/08/25 07:25:13;;;;;;;7.40;3.95;;;22.10;99.90;;;;;;5058547;28;20044;-73
2023/08/25 07:27:58;;;;;;;10.10;3.63;;;22.20;99.90;;;;;;5079265;28;20484;-73
2023/08/25 07:30:45;;;;;;;7.90;3.58;;;22.20;99.90;;;;;;5082468;28;20065;-73
2023/08/25 07:33:30;;;;;;;7.38;3.13;;;22.20;99.90;;;;;;5062492;28;20507;-73
2023/08/25 07:36:18;;;;;;;5.68;3.00;;;22.30;99.90;;;;;;5060146;28;20043;-73
2023/08/25 07:39:03;;;;;;;7.80;3.03;;;22.30;99.90;;;;;;5087159;28;20134;-73
2023/08/25 07:41:49;;;;;;;8.48;2.78;;;22.40;99.90;;;;;;5079373;28;20118;-74
2023/08/25 07:44:36;;;;;;;6.05;2.85;;;22.40;99.90;;;;;;5094465;28;20047;-73
2023/08/25 07:47:22;;;;;;;8.02;2.55;;;22.50;99.90;;;;;;5057024;28;20079;-73
2023/08/25 07:50:09;;;;;;;6.90;2.63;;;22.50;99.90;;;;;;5093903;28;20036;-74
2023/08/25 07:52:55;;;;;;;6.20;3.40;;;22.50;99.90;;;;;;5079070;28;20096;-74
2023/08/25 07:55:41;;;;;;;6.45;3.20;;;22.60;99.90;;;;;;5078197;28;20120;-74
2023/08/25 07:58:27;;;;;;;5.60;2.88;;;22.60;99.90;;;;;;5064892;28;20152;-73
2023/08/25 08:01:13;;;;;;;7.15;2.53;;;22.60;99.90;;;;;;5074937;28;20045;-73
2023/08/25 08:03:59;;;;;;;7.78;2.67;;;22.70;99.90;;;;;;5095233;28;20091;-73
2023/08/25 08:06:45;;;;;;;10.43;2.95;;;22.70;99.90;;;;;;5081297;28;20040;-73
2023/08/25 08:09:31;;;;;;;8.85;2.92;;;22.80;99.90;;;;;;5108294;28;20036;-74
2023/08/25 08:12:17;;;;;;;6.28;2.95;;;22.80;99.90;;;;;;5094707;28;20048;-74
2023/08/25 08:15:07;;;;;;;7.95;3.70;;;22.90;99.90;;;;;;5092392;28;20046;-73
2023/08/25 08:17:53;;;;;;;6.53;2.80;;;22.90;99.90;;;;;;5095646;28;20067;-73
2023/08/25 08:20:39;;;;;;;8.50;2.92;;;22.90;99.90;;;;;;5080883;28;20152;-74
2023/08/25 08:23:25;;;;;;;5.70;2.70;;;23.00;99.90;;;;;;5095608;28;20043;-73
2023/08/25 08:26:13;;;;;;;7.40;3.08;;;23.10;99.90;;;;;;5076603;28;20075;-73
2023/08/25 08:28:59;;;;;;;7.18;2.80;;;23.10;99.90;;;;;;5080341;28;20108;-73
2023/08/25 08:31:48;;;;;;;4.68;2.55;;;23.10;99.90;;;;;;5094115;28;20043;-74
2023/08/25 08:34:35;;;;;;;6.38;3.15;;;23.10;99.90;;;;;;5074204;28;20047;-74
2023/08/25 08:37:21;;;;;;;9.73;2.95;;;23.20;99.90;;;;;;5073243;28;20036;-74
2023/08/25 08:40:10;;;;;;;7.55;3.17;;;23.30;99.90;;;;;;5068675;28;20487;-74
2023/08/25 08:42:56;;;;;;;4.50;2.83;;;23.30;99.90;;;;;;5091606;28;20035;-74
2023/08/25 08:45:42;;;;;;;8.07;2.80;;;23.30;99.90;;;;;;5080294;28;20046;-73
2023/08/25 08:48:28;;;;;;;6.90;3.17;;;23.40;99.90;;;;;;5067136;28;20047;-73
2023/08/25 08:51:16;;;;;;;9.80;2.95;;;23.50;99.90;;;;;;5078187;28;20047;-73
2023/08/25 08:54:05;;;;;;;9.43;4.40;;;23.40;99.90;;;;;;5074231;28;20104;-72
2023/08/25 08:56:52;;;;;;;9.73;2.80;;;23.50;99.90;;;;;;5068155;28;20039;-74
2023/08/25 08:59:38;;;;;;;6.53;2.53;;;23.50;99.90;;;;;;5056342;28;20051;-75
2023/08/25 09:02:27;;;;;;;10.50;3.13;;;23.50;99.90;;;;;;5087307;28;20103;-73
2023/08/25 09:05:13;;;;;;;5.57;2.92;;;23.60;99.90;;;;;;5076503;28;20044;-73
2023/08/25 09:08:07;;;;;;;11.05;3.25;;;23.60;99.90;;;;;;5073974;28;20036;-73
2023/08/25 09:10:53;;;;;;;5.85;2.63;;;23.60;99.90;;;;;;5079340;28;20087;-73
2023/08/25 09:13:39;;;;;;;6.25;3.10;;;23.70;99.90;;;;;;5086659;28;20058;-73
2023/08/25 09:16:25;;;;;;;6.97;2.63;;;23.70;99.90;;;;;;5063937;28;20035;-73
2023/08/25 09:19:13;;;;;;;4.90;3.08;;;23.70;99.90;;;;;;5073593;28;20079;-73
2023/08/25 09:21:59;;;;;;;7.00;2.90;;;23.70;99.90;;;;;;5057724;28;20449;-74
2023/08/25 09:24:45;;;;;;;6.78;2.92;;;23.80;99.90;;;;;;5075127;28;20043;-73
2023/08/25 09:27:31;;;;;;;8.70;2.83;;;23.90;99.90;;;;;;5108528;28;20039;-73
2023/08/25 09:30:17;;;;;;;6.15;2.88;;;24.00;99.90;;;;;;5092829;28;20633;-73
2023/08/25 09:33:10;;;;;;;6.75;2.90;;;24.10;99.90;;;;;;5105211;28;20051;-74
2023/08/25 09:35:58;;;;;;;7.93;2.80;;;24.20;99.90;;;;;;5067893;28;20031;-74
2023/08/25 09:38:47;;;;;;;7.50;2.70;;;24.20;99.90;;;;;;5072578;28;20031;-74
2023/08/25 09:41:33;;;;;;;8.63;3.95;;;24.30;99.90;;;;;;5067087;28;20028;-73
2023/08/25 09:44:19;;;;;;;8.15;3.33;;;24.40;99.90;;;;;;5086215;28;20097;-74
2023/08/25 09:47:08;;;;;;;7.28;3.28;;;24.50;99.90;;;;;;5077677;28;20040;-74
2023/08/25 09:49:54;;;;;;;7.10;3.33;;;24.70;99.90;;;;;;5083832;28;20077;-73
2023/08/25 09:52:40;;;;;;;6.00;3.03;;;24.70;99.90;;;;;;5074644;28;20044;-73
2023/08/25 09:55:26;;;;;;;8.52;3.30;;;24.80;99.90;;;;;;5083385;28;20039;-74
2023/08/25 09:58:12;;;;;;;4.50;2.88;;;24.80;99.90;;;;;;5068869;28;20131;-74
2023/08/25 10:00:58;;;;;;;4.97;3.05;;;25.10;99.90;;;;;;5096759;28;20371;-74
2023/08/25 10:03:44;;;;;;;6.18;2.80;;;25.00;99.90;;;;;;5098883;28;20447;-73
2023/08/25 10:06:31;;;;;;;6.03;3.10;;;25.00;99.90;;;;;;5064216;28;20042;-73
2023/08/25 10:09:18;;;;;;;6.85;3.05;;;25.00;99.90;;;;;;5097722;28;20714;-73
2023/08/25 10:12:07;;;;;;;7.38;3.50;;;24.90;99.90;;;;;;5083391;28;20043;-73
2023/08/25 10:14:56;;;;;;;8.02;3.55;;;24.80;99.90;;;;;;5081822;28;20036;-73
2023/08/25 10:17:44;;;;;;;11.52;4.03;;;24.60;99.90;;;;;;5083279;28;20261;-74
2023/08/25 10:20:30;;;;;;;10.20;3.80;;;24.50;99.90;;;;;;5079682;28;20040;-73
2023/08/25 10:23:16;;;;;;;5.22;3.20;;;24.50;99.90;;;;;;5055834;28;20049;-74
2023/08/25 10:26:02;;;;;;;10.32;3.75;;;24.40;99.90;;;;;;5077800;28;20444;-73
2023/08/25 10:28:48;;;;;;;7.55;4.20;;;24.30;99.90;;;;;;5065764;28;20051;-75
2023/08/25 10:31:34;;;;;;;7.43;3.78;;;24.30;99.90;;;;;;5084018;28;20092;-74
2023/08/25 10:34:33;;;;;;;10.82;4.20;;;24.20;99.90;;;;;;5090024;28;20054;-74
2023/08/25 10:37:24;;;;;;;8.25;4.75;;;24.10;99.90;;;;;;5094886;28;20675;-76
2023/08/25 10:40:10;;;;;;;6.95;3.88;;;24.10;99.90;;;;;;5085631;28;20447;-74
2023/08/25 10:42:57;;;;;;;10.20;4.07;;;24.10;99.90;;;;;;5067700;28;20043;-75
2023/08/25 10:45:43;;;;;;;6.55;4.00;;;24.10;99.90;;;;;;5075183;28;20044;-75
2023/08/25 10:48:29;;;;;;;7.50;3.47;;;24.00;99.90;;;;;;5082687;28;20333;-75
2023/08/25 10:51:19;;;;;;;6.25;3.38;;;23.90;99.90;;;;;;5100420;28;20067;-74
2023/08/25 10:54:05;;;;;;;5.97;3.47;;;23.80;99.90;;;;;;5066646;28;20070;-74
2023/08/25 10:56:51;;;;;;;7.50;3.95;;;23.70;99.90;;;;;;5058637;28;20475;-74
2023/08/25 10:59:37;;;;;;;5.88;3.38;;;23.70;99.90;;;;;;5082041;28;20042;-75
2023/08/25 11:02:36;;;;;;;5.43;3.40;;;23.70;99.90;;;;;;5066892;28;20047;-75
2023/08/25 11:05:31;;;;;;;6.05;3.40;;;23.80;99.90;;;;;;5062984;28;20047;-76
2023/08/25 11:08:25;;;;;;;7.55;4.00;;;23.80;99.90;;;;;;5079459;28;20437;-74
2023/08/25 11:11:13;;;;;;;8.13;4.18;;;23.90;99.90;;;;;;5081681;28;20046;-76
2023/08/25 11:13:59;;;;;;;6.30;4.38;;;23.80;99.90;;;;;;5080289;28;20058;-75
2023/08/25 11:16:47;;;;;;;6.77;3.83;;;23.80;99.90;;;;;;5082065;28;20059;-76
2023/08/25 11:19:36;;;;;;;7.30;4.00;;;23.70;99.90;;;;;;5076240;28;20300;-74
2023/08/25 11:22:22;;;;;;;8.85;4.40;;;23.60;99.90;;;;;;5067845;28;20044;-74
2023/08/25 11:25:15;;;;;;;7.13;4.60;;;23.60;99.90;;;;;;5073978;28;20803;-75
2023/08/25 11:28:03;;;;;;;9.43;5.07;;;23.50;99.90;;;;;;5109130;28;20041;-76
2023/08/25 11:30:49;;;;;;;;;;;23.40;99.90;;;;;;5082820;28;20080;-74
2023/08/25 11:33:35;;;;;;;6.78;4.75;;;23.30;99.90;;;;;;5087618;28;19959;-76
2023/08/25 11:36:24;;;;;;;11.52;5.80;;;23.30;99.90;;;;;;5086920;28;20499;-74
2023/08/25 11:39:18;;;;;;;7.65;4.68;;;23.30;99.90;;;;;;5096393;28;20035;-75
2023/08/25 11:42:04;;;;;;;10.35;5.38;;;23.20;99.90;;;;;;5061875;28;20425;-74
2023/08/25 11:44:52;;;;;;;9.00;5.15;;;23.20;99.90;;;;;;5075004;28;20047;-75
2023/08/25 11:47:38;;;;;;;11.02;5.40;;;23.20;99.90;;;;;;5087266;28;20549;-76
2023/08/25 11:50:25;;;;;;;10.32;5.53;;;23.20;99.90;;;;;;5069339;28;20040;-76
2023/08/25 11:53:11;;;;;;;10.43;5.50;;;23.30;99.90;;;;;;5079054;28;20118;-75
2023/08/25 11:56:01;;;;;;;12.75;6.40;;;23.20;99.90;;;;;;5083237;28;20116;-75
2023/08/25 11:58:48;;;;;;;9.65;5.93;;;22.90;99.90;;;;;;5063921;28;20035;-75
2023/08/25 12:01:35;;;;;;;11.43;5.68;;;22.70;99.90;;;;;;5080439;28;20467;-74
2023/08/25 12:04:22;;;;;;;8.60;6.65;;;22.50;99.90;;;;;;5062898;28;20044;-74
2023/08/25 12:07:08;;;;;;;9.05;6.05;;;22.00;99.90;;;;;;5065683;28;20063;-74
2023/08/25 12:09:55;;;;;;;9.85;5.85;;;21.70;99.90;;;;;;5080197;28;20035;-74
2023/08/25 12:12:41;;;;;;;10.75;6.90;;;21.50;99.90;;;;;;5056635;28;20066;-75
2023/08/25 12:15:37;;;;;;;12.73;7.82;;;21.40;99.90;;;;;;5067807;28;20036;-75
2023/08/25 12:18:31;;;;;;;13.13;9.30;;;21.20;99.90;;;;;;5069248;28;20641;-75
2023/08/25 12:21:17;;;;;;;14.05;8.57;;;21.00;99.90;;;;;;5073701;28;20078;-76
2023/08/25 12:24:03;;;;;;;10.52;7.65;;;21.10;99.90;;;;;;5067843;28;20142;-76
2023/08/25 12:26:49;;;;;;;9.45;7.30;;;21.00;99.90;;;;;;5068033;28;20070;-75
2023/08/25 12:29:35;;;;;;;14.15;8.60;;;21.20;99.90;;;;;;5093032;28;20036;-75
2023/08/25 12:32:21;;;;;;;13.40;8.07;;;21.30;99.90;;;;;;5066038;28;20055;-77
2023/08/25 12:35:07;;;;;;;14.23;8.10;;;21.30;99.90;;;;;;5068035;28;20522;-75
2023/08/25 12:37:53;;;;;;;12.90;7.20;;;21.30;99.90;;;;;;5074187;28;20048;-75
2023/08/25 12:40:39;;;;;;;10.80;7.28;;;21.40;99.90;;;;;;5060114;28;20145;-75
2023/08/25 12:43:26;;;;;;;10.43;7.95;;;21.40;99.90;;;;;;5098434;28;20039;-75
2023/08/25 12:46:12;;;;;;;13.23;8.00;;;21.50;99.90;;;;;;5085587;28;20044;-75
2023/08/25 12:48:58;;;;;;;15.65;8.30;;;21.60;99.90;;;;;;5088614;28;20048;-75
2023/08/25 12:51:44;;;;;;;12.02;7.78;;;21.60;99.90;;;;;;5083773;28;20432;-75
2023/08/25 12:54:31;;;;;;;14.32;7.90;;;21.60;99.90;;;;;;5096865;28;20054;-76
2023/08/25 12:57:17;;;;;;;11.32;8.63;;;21.70;99.90;;;;;;5085268;28;20035;-76
2023/08/25 13:00:04;;;;;;;13.82;8.13;;;21.70;99.90;;;;;;5082514;28;20044;-75
2023/08/25 13:02:50;;;;;;;12.57;8.48;;;21.70;99.90;;;;;;5099951;28;20040;-76
2023/08/25 13:05:36;;;;;;;11.68;7.60;;;21.70;99.90;;;;;;5098895;28;20414;-75
2023/08/25 13:08:23;;;;;;;11.77;7.88;;;21.70;99.90;;;;;;5056473;28;20421;-76
2023/08/25 13:11:09;;;;;;;12.02;7.28;;;21.70;99.90;;;;;;5093773;28;20054;-76
2023/08/25 13:13:54;;;;;;;11.63;8.20;;;21.70;99.90;;;;;;5063084;28;20479;-75
2023/08/25 13:16:40;;;;;;;12.63;8.73;;;21.50;99.90;;;;;;5083124;28;20043;-76
2023/08/25 13:19:27;;;;;;;11.48;7.40;;;21.30;99.90;;;;;;5078164;28;20035;-76
2023/08/25 13:22:13;;;;;;;11.05;7.13;;;21.50;99.90;;;;;;5096673;28;20079;-75
2023/08/25 13:25:00;;;;;;;11.65;7.20;;;21.70;99.90;;;;;;5096650;28;20517;-76
2023/08/25 13:27:46;;;;;;;8.52;6.82;;;21.80;99.90;;;;;;5086481;28;20105;-76
2023/08/25 13:30:32;;;;;;;12.00;6.45;;;22.00;99.90;;;;;;5069643;28;20040;-76
2023/08/25 13:33:18;;;;;;;10.27;6.22;;;22.20;99.90;;;;;;5069164;28;20395;-76
2023/08/25 13:36:05;;;;;;;8.35;5.60;;;22.30;99.90;;;;;;5083512;28;20039;-76
2023/08/25 13:38:50;;;;;;;8.20;5.43;;;22.30;99.90;;;;;;5084404;28;20367;-77
2023/08/25 13:41:37;;;;;;;8.95;5.68;;;22.40;99.90;;;;;;5084467;28;20123;-76
2023/08/25 13:44:23;;;;;;;7.78;5.78;;;22.30;99.90;;;;;;5085315;28;20074;-76
2023/08/25 13:47:09;;;;;;;6.80;4.78;;;22.30;99.90;;;;;;5078218;28;20101;-76
2023/08/25 13:49:55;;;;;;;9.25;4.93;;;22.30;99.90;;;;;;5084267;28;20036;-75
2023/08/25 13:52:41;;;;;;;7.10;4.70;;;22.30;99.90;;;;;;5111098;28;20131;-75
2023/08/25 13:55:27;;;;;;;7.78;4.90;;;22.30;99.90;;;;;;5081201;28;20036;-75
2023/08/25 13:58:13;;;;;;;8.57;4.90;;;22.30;99.90;;;;;;5064031;28;20052;-76
2023/08/25 14:00:59;;;;;;;7.38;4.72;;;22.20;99.90;;;;;;5075429;28;20039;-76
2023/08/25 14:03:46;;;;;;;7.95;4.40;;;22.30;99.90;;;;;;5065712;28;20036;-75
2023/08/25 14:06:32;;;;;;;9.98;4.45;;;22.30;99.90;;;;;;5074557;28;20048;-75
2023/08/25 14:09:18;;;;;;;6.72;4.22;;;22.10;99.90;;;;;;5092844;28;20411;-75
2023/08/25 14:12:04;;;;;;;7.70;4.40;;;22.20;99.90;;;;;;5085687;28;20039;-76
2023/08/25 14:14:50;;;;;;;6.03;4.60;;;22.20;99.90;;;;;;5074728;28;20059;-75
2023/08/25 14:17:36;;;;;;;12.15;5.63;;;22.30;99.90;;;;;;5055356;28;20458;-75
2023/08/25 14:20:22;;;;;;;8.43;5.45;;;22.30;99.90;;;;;;5069332;28;20118;-74
2023/08/25 14:23:08;;;;;;;8.13;5.07;;;22.30;99.90;;;;;;5073841;28;20071;-74
2023/08/25 14:25:54;;;;;;;8.25;5.13;;;22.30;99.90;;;;;;5110099;28;20043;-75